Happy, Arkansas
Current Conditions -  °F | °C
As of 7:56 AM on Monday 24 Nov 2014 (Local Time) from KSRC Reporting Station
Clear Clear  
Wind Chill: 41°   Ceiling: Unl
Heat Index: 45°   Visibility: 10mi
Dew Point: 37°   Wind: 7mph
Humidity: 74%   Direction: 250°WSW
Pressure: 29.84"   Gusts: NA
Location:  35.2662°N, 91.8491°W
Report Text: KSRC 241356Z AUTO 25006KT 10SM CLR 07/03 A2984 RMK AO2 SLP113 T00720028 TSNO
Loading
Personal Weather Stations






























Interactive Weather Map New forecast layout! Learn more

10-Day Weather Forecast

Advertisements
Track Severe Weather on mobile